createdAt,value
2022-10-15T00:00:52.018Z,97055.00
2022-10-15T00:04:52.989Z,97067.00
2022-10-15T00:08:53.866Z,97057.00
2022-10-15T00:12:54.881Z,97054.00
2022-10-15T00:16:55.859Z,97043.00
2022-10-15T00:20:56.739Z,97054.00
2022-10-15T00:24:57.740Z,97051.00
2022-10-15T00:29:01.859Z,97059.00
2022-10-15T00:33:02.955Z,97054.00
2022-10-15T00:37:03.942Z,97054.00
2022-10-15T00:41:07.544Z,97063.00
2022-10-15T00:45:13.888Z,97053.00
2022-10-15T00:49:37.157Z,97057.00
2022-10-15T00:53:38.324Z,97055.00
2022-10-15T00:57:40.416Z,97046.00
2022-10-15T01:01:41.799Z,97045.00
2022-10-15T01:05:43.457Z,97046.00
2022-10-15T01:09:45.914Z,97035.00
2022-10-15T01:14:08.928Z,97046.00
2022-10-15T01:18:13.706Z,97042.00
2022-10-15T01:22:18.542Z,97035.00
2022-10-15T01:26:29.424Z,97031.00
2022-10-15T01:30:40.015Z,97024.00
2022-10-15T01:35:07.739Z,97023.00
2022-10-15T01:39:18.514Z,97018.00
2022-10-15T01:43:38.744Z,97017.00
2022-10-15T01:47:58.306Z,97024.00
2022-10-15T01:52:02.567Z,97022.00
2022-10-15T01:56:10.289Z,97021.00
2022-10-15T02:00:11.765Z,97025.00
2022-10-15T02:04:24.724Z,97006.00
2022-10-15T02:08:38.821Z,97010.00
2022-10-15T02:12:58.121Z,97009.00
2022-10-15T02:17:02.775Z,97008.00
2022-10-15T02:21:07.588Z,97001.00
2022-10-15T02:25:12.493Z,97020.00
2022-10-15T02:33:20.369Z,97023.00
2022-10-15T02:37:23.800Z,97017.00
2022-10-15T02:41:28.149Z,97008.00
2022-10-15T02:45:29.106Z,97015.00
2022-10-15T02:49:29.954Z,97012.00
2022-10-15T02:53:30.912Z,97003.00
2022-10-15T02:57:31.740Z,97004.00
2022-10-15T03:01:33.717Z,96996.00
2022-10-15T03:05:35.077Z,96996.00
2022-10-15T03:09:36.117Z,96992.00
2022-10-15T03:13:38.893Z,97003.00
2022-10-15T03:17:39.928Z,97004.00
2022-10-15T03:21:41.368Z,97010.00
2022-10-15T03:25:42.428Z,97009.00
2022-10-15T03:29:43.339Z,97020.00
2022-10-15T03:33:44.287Z,97022.00
2022-10-15T03:37:45.216Z,97023.00
2022-10-15T03:41:46.057Z,97026.00
2022-10-15T03:45:47.090Z,97021.00
2022-10-15T03:49:48.225Z,97024.00
2022-10-15T03:53:49.060Z,97020.00
2022-10-15T03:57:50.692Z,97024.00
2022-10-15T04:01:51.542Z,97030.00
2022-10-15T04:05:54.587Z,97027.00
2022-10-15T04:09:56.092Z,97019.00
2022-10-15T04:13:57.045Z,97037.00
2022-10-15T04:17:58.199Z,97019.00
2022-10-15T04:21:59.273Z,97031.00
2022-10-15T04:26:00.785Z,97029.00
2022-10-15T04:30:01.987Z,97029.00
2022-10-15T04:34:03.697Z,97042.00
2022-10-15T04:38:04.731Z,97055.00
2022-10-15T04:42:05.578Z,97053.00
2022-10-15T04:46:08.726Z,97039.00
2022-10-15T04:50:09.675Z,97041.00
2022-10-15T04:54:10.596Z,97044.00
2022-10-15T04:58:11.575Z,97049.00
2022-10-15T05:02:12.545Z,97055.00
2022-10-15T05:06:21.506Z,97060.00
2022-10-15T05:10:22.552Z,97059.00
2022-10-15T05:14:23.663Z,97049.00
2022-10-15T05:18:24.659Z,97053.00
2022-10-15T05:22:25.873Z,97055.00
2022-10-15T05:26:28.919Z,97058.00
2022-10-15T05:30:29.965Z,97069.00
2022-10-15T05:34:31.218Z,97057.00
2022-10-15T05:38:32.238Z,97061.00
2022-10-15T05:42:33.270Z,97062.00
2022-10-15T05:46:34.247Z,97077.00
2022-10-15T05:50:35.446Z,97074.00
2022-10-15T05:54:36.473Z,97078.00
2022-10-15T05:58:37.894Z,97090.00
2022-10-15T06:02:39.103Z,97094.00
2022-10-15T06:06:40.344Z,97102.00
2022-10-15T06:10:41.593Z,97114.00
2022-10-15T06:14:42.571Z,97129.00
2022-10-15T06:18:44.460Z,97120.00
2022-10-15T06:22:45.435Z,97107.00
2022-10-15T06:26:46.469Z,97110.00
2022-10-15T06:30:47.361Z,97122.00
2022-10-15T06:34:48.413Z,97123.00
2022-10-15T06:38:49.525Z,97131.00
2022-10-15T06:42:50.470Z,97137.00
2022-10-15T06:46:51.320Z,97135.00
2022-10-15T06:50:52.166Z,97147.00
2022-10-15T06:54:53.023Z,97157.00
2022-10-15T06:58:54.007Z,97170.00
2022-10-15T07:02:55.079Z,97170.00
2022-10-15T07:06:56.056Z,97174.00
2022-10-15T07:10:56.891Z,97179.00
2022-10-15T07:14:57.870Z,97183.00
2022-10-15T07:18:58.876Z,97185.00
2022-10-15T07:23:01.344Z,97192.00
2022-10-15T07:27:08.357Z,97192.00
2022-10-15T07:31:06.907Z,97183.00
2022-10-15T07:35:08.321Z,97167.00
2022-10-15T07:39:09.583Z,97190.00
2022-10-15T07:43:10.549Z,97190.00
2022-10-15T07:47:11.489Z,97197.00
2022-10-15T07:51:12.582Z,97200.00
2022-10-15T07:55:13.820Z,97199.00
2022-10-15T07:59:14.854Z,97204.00
2022-10-15T08:03:15.875Z,97205.00
2022-10-15T08:07:17.016Z,97214.00
2022-10-15T08:11:18.061Z,97207.00
2022-10-15T08:15:19.083Z,97209.00
2022-10-15T08:19:20.625Z,97208.00
2022-10-15T08:23:21.570Z,97214.00
2022-10-15T08:27:22.604Z,97217.00
2022-10-15T08:31:23.723Z,97218.00
2022-10-15T08:35:26.083Z,97223.00
2022-10-15T08:39:27.072Z,97224.00
2022-10-15T08:43:42.638Z,97229.00
2022-10-15T08:47:47.576Z,97220.00
2022-10-15T08:51:53.144Z,97233.00
2022-10-15T08:56:00.999Z,97228.00
2022-10-15T09:00:05.928Z,97236.00
2022-10-15T09:04:33.425Z,97239.00
2022-10-15T09:09:01.299Z,97238.00
2022-10-15T09:13:16.651Z,97238.00
2022-10-15T09:17:24.563Z,97241.00
2022-10-15T09:21:26.504Z,97246.00
2022-10-15T09:25:32.073Z,97241.00
2022-10-15T09:29:42.992Z,97243.00
2022-10-15T09:34:08.746Z,97237.00
2022-10-15T09:38:28.976Z,97238.00
2022-10-15T09:42:33.645Z,97237.00
2022-10-15T09:46:38.534Z,97234.00
2022-10-15T09:50:43.337Z,97231.00
2022-10-15T09:54:57.240Z,97240.00
2022-10-15T09:58:59.026Z,97234.00
2022-10-15T10:03:06.522Z,97225.00
2022-10-15T10:07:08.511Z,97238.00
2022-10-15T10:11:12.187Z,97228.00
2022-10-15T10:15:29.281Z,97233.00
2022-10-15T10:19:30.229Z,97240.00
2022-10-15T10:23:36.890Z,97252.00
2022-10-15T10:27:41.660Z,97240.00
2022-10-15T10:31:44.372Z,97244.00
2022-10-15T10:35:49.712Z,97237.00
2022-10-15T10:39:56.840Z,97234.00
2022-10-15T10:43:57.800Z,97247.00
2022-10-15T10:48:01.637Z,97253.00
2022-10-15T10:52:05.185Z,97243.00
2022-10-15T10:56:09.959Z,97240.00
2022-10-15T11:00:24.884Z,97242.00
2022-10-15T11:04:33.136Z,97238.00
2022-10-15T11:08:54.220Z,97230.00
2022-10-15T11:13:17.844Z,97228.00
2022-10-15T11:17:39.296Z,97234.00
2022-10-15T11:21:47.978Z,97220.00
2022-10-15T11:25:56.964Z,97224.00
2022-10-15T11:30:05.734Z,97218.00
2022-10-15T11:34:22.975Z,97218.00
2022-10-15T11:38:40.319Z,97212.00
2022-10-15T11:42:48.040Z,97204.00
2022-10-15T11:46:56.509Z,97202.00
2022-10-15T11:51:01.434Z,97212.00
2022-10-15T11:55:15.964Z,97217.00
2022-10-15T11:59:30.609Z,97200.00
2022-10-15T12:03:35.638Z,97203.00
2022-10-15T12:07:46.060Z,97198.00
2022-10-15T12:12:10.342Z,97201.00
2022-10-15T12:16:27.671Z,97189.00
2022-10-15T12:20:29.227Z,97184.00
2022-10-15T12:24:50.773Z,97183.00
2022-10-15T12:28:54.714Z,97180.00
2022-10-15T12:32:55.716Z,97183.00
2022-10-15T12:37:18.255Z,97175.00
2022-10-15T12:41:21.410Z,97176.00
2022-10-15T12:45:25.797Z,97175.00
2022-10-15T12:49:31.491Z,97167.00
2022-10-15T12:53:33.663Z,97163.00
2022-10-15T12:57:38.550Z,97159.00
2022-10-15T13:01:46.218Z,97161.00
2022-10-15T13:05:51.560Z,97173.00
2022-10-15T13:09:52.512Z,97156.00
2022-10-15T13:14:02.832Z,97160.00
2022-10-15T13:18:10.283Z,97162.00
2022-10-15T13:22:24.671Z,97164.00
2022-10-15T13:26:27.085Z,97172.00
2022-10-15T13:30:28.942Z,97168.00
2022-10-15T13:34:33.491Z,97169.00
2022-10-15T13:38:38.615Z,97166.00
2022-10-15T13:42:43.641Z,97167.00
2022-10-15T13:46:44.765Z,97164.00
2022-10-15T13:50:49.461Z,97162.00
2022-10-15T13:54:51.797Z,97151.00
2022-10-15T13:58:55.188Z,97149.00
2022-10-15T14:03:17.053Z,97153.00
2022-10-15T14:07:25.512Z,97159.00
2022-10-15T14:11:29.334Z,97160.00
2022-10-15T14:15:42.830Z,97143.00
2022-10-15T14:20:02.185Z,97151.00
2022-10-15T14:24:02.871Z,97173.00
2022-10-15T14:28:04.132Z,97156.00
2022-10-15T14:32:28.500Z,97163.00
2022-10-15T14:36:41.575Z,97161.00
2022-10-15T14:41:07.365Z,97176.00
2022-10-15T14:45:31.243Z,97164.00
2022-10-15T14:49:34.204Z,97174.00
2022-10-15T14:53:38.519Z,97163.00
2022-10-15T14:57:42.830Z,97186.00
2022-10-15T15:01:59.953Z,97190.00
2022-10-15T15:05:59.309Z,97184.00
2022-10-15T15:10:00.387Z,97180.00
2022-10-15T15:14:03.031Z,97201.00
2022-10-15T15:18:04.160Z,97183.00
2022-10-15T15:22:05.286Z,97187.00
2022-10-15T15:26:06.331Z,97163.00
2022-10-15T15:30:14.091Z,97187.00
2022-10-15T15:34:15.275Z,97179.00
2022-10-15T15:38:17.986Z,97180.00
2022-10-15T15:42:21.157Z,97193.00
2022-10-15T15:46:22.237Z,97206.00
2022-10-15T15:50:23.878Z,97204.00
2022-10-15T15:54:24.839Z,97208.00
2022-10-15T15:58:25.852Z,97200.00
2022-10-15T16:02:27.526Z,97187.00
2022-10-15T16:06:28.836Z,97191.00
2022-10-15T16:10:29.787Z,97190.00
2022-10-15T16:14:31.911Z,97190.00
2022-10-15T16:18:32.976Z,97192.00
2022-10-15T16:22:34.152Z,97198.00
2022-10-15T16:26:35.246Z,97206.00
2022-10-15T16:30:36.338Z,97207.00
2022-10-15T16:34:37.272Z,97213.00
2022-10-15T16:38:39.780Z,97225.00
2022-10-15T16:42:40.976Z,97236.00
2022-10-15T16:46:41.976Z,97237.00
2022-10-15T16:50:42.970Z,97234.00
2022-10-15T16:54:43.966Z,97236.00
2022-10-15T16:58:45.457Z,97240.00
2022-10-15T17:02:46.457Z,97253.00
2022-10-15T17:06:47.594Z,97253.00
2022-10-15T17:10:48.513Z,97255.00
2022-10-15T17:14:51.012Z,97247.00
2022-10-15T17:22:53.692Z,97263.00
2022-10-15T17:26:56.608Z,97270.00
2022-10-15T17:31:03.985Z,97273.00
2022-10-15T17:35:05.442Z,97275.00
2022-10-15T17:39:06.435Z,97288.00
2022-10-15T17:43:07.380Z,97283.00
2022-10-15T17:47:08.380Z,97293.00
2022-10-15T17:51:11.367Z,97303.00
2022-10-15T17:55:12.462Z,97307.00
2022-10-15T17:59:13.576Z,97306.00
2022-10-15T18:03:14.539Z,97315.00
2022-10-15T18:07:18.171Z,97316.00
2022-10-15T18:11:23.661Z,97317.00
2022-10-15T18:15:24.731Z,97323.00
2022-10-15T18:19:26.362Z,97329.00
2022-10-15T18:23:29.383Z,97279.00
2022-10-15T18:27:30.514Z,97337.00
2022-10-15T18:31:31.574Z,97330.00
2022-10-15T18:35:37.161Z,97329.00
2022-10-15T18:39:38.122Z,97335.00
2022-10-15T18:43:38.992Z,97352.00
2022-10-15T18:47:39.976Z,97354.00
2022-10-15T18:51:41.829Z,97353.00
2022-10-15T18:55:42.690Z,97358.00
2022-10-15T18:59:44.493Z,97352.00
2022-10-15T19:03:49.174Z,97361.00
2022-10-15T19:07:52.191Z,97350.00
2022-10-15T19:11:55.207Z,97348.00
2022-10-15T19:15:56.344Z,97347.00
2022-10-15T19:19:57.404Z,97347.00
2022-10-15T19:23:58.923Z,97355.00
2022-10-15T19:28:00.027Z,97359.00
2022-10-15T19:32:03.037Z,97348.00
2022-10-15T19:36:04.650Z,97347.00
2022-10-15T19:40:07.834Z,97342.00
2022-10-15T19:44:10.142Z,97357.00
2022-10-15T19:48:13.464Z,97366.00
2022-10-15T19:52:14.597Z,97357.00
2022-10-15T19:56:15.839Z,97368.00
2022-10-15T20:00:17.439Z,97384.00
2022-10-15T20:04:18.602Z,97376.00
2022-10-15T20:08:20.078Z,97385.00
2022-10-15T20:12:21.500Z,97399.00
2022-10-15T20:16:24.233Z,97394.00
2022-10-15T20:20:27.257Z,97403.00
2022-10-15T20:24:28.584Z,97420.00
2022-10-15T20:28:29.704Z,97416.00
2022-10-15T20:32:34.797Z,97426.00
2022-10-15T20:36:34.429Z,97428.00
2022-10-15T20:40:40.368Z,97422.00
2022-10-15T20:44:42.298Z,97418.00
2022-10-15T20:48:44.907Z,97437.00
2022-10-15T20:52:47.225Z,97438.00
2022-10-15T20:56:49.857Z,97445.00
2022-10-15T21:00:50.829Z,97463.00
2022-10-15T21:04:53.027Z,97456.00
2022-10-15T21:08:54.112Z,97442.00
2022-10-15T21:12:55.291Z,97457.00
2022-10-15T21:16:56.364Z,97459.00
2022-10-15T21:21:10.331Z,97457.00
2022-10-15T21:25:11.613Z,97463.00
2022-10-15T21:29:14.511Z,97475.00
2022-10-15T21:33:15.638Z,97484.00
2022-10-15T21:37:17.540Z,97483.00
2022-10-15T21:41:18.848Z,97475.00
2022-10-15T21:45:19.991Z,97473.00
2022-10-15T21:49:21.755Z,97478.00
2022-10-15T21:53:23.253Z,97478.00
2022-10-15T21:57:25.518Z,97491.00
2022-10-15T22:01:33.360Z,97504.00
2022-10-15T22:05:34.474Z,97498.00
2022-10-15T22:09:36.204Z,97511.00
2022-10-15T22:13:38.772Z,97504.00
2022-10-15T22:17:40.074Z,97505.00
2022-10-15T22:21:41.549Z,97512.00
2022-10-15T22:25:42.829Z,97517.00
2022-10-15T22:29:44.481Z,97517.00
2022-10-15T22:33:46.657Z,97521.00
2022-10-15T22:37:47.633Z,97515.00
2022-10-15T22:41:48.730Z,97519.00
2022-10-15T22:45:50.283Z,97524.00
2022-10-15T22:49:51.556Z,97518.00
2022-10-15T22:53:57.295Z,97521.00
2022-10-15T22:57:58.255Z,97533.00
2022-10-15T23:01:59.564Z,97543.00
2022-10-15T23:06:01.097Z,97533.00
2022-10-15T23:10:02.037Z,97539.00
2022-10-15T23:14:07.042Z,97528.00
2022-10-15T23:18:08.309Z,97537.00
2022-10-15T23:22:09.374Z,97537.00
2022-10-15T23:26:12.664Z,97547.00
2022-10-15T23:30:21.044Z,97551.00
2022-10-15T23:34:20.045Z,97554.00
2022-10-15T23:38:20.988Z,97559.00
2022-10-15T23:42:22.166Z,97555.00
2022-10-15T23:46:24.036Z,97562.00
2022-10-15T23:50:24.903Z,97569.00
2022-10-15T23:54:25.889Z,97550.00
2022-10-15T23:58:26.838Z,97544.00
